sensor_id;sensor_type;location;lat;lon;timestamp;P1;durP1;ratioP1;P2;durP2;ratioP2
50291;SDS011;36190;54.980;73.388;2023-09-12T00:02:18;6.25;;;2.40;;
50291;SDS011;36190;54.980;73.388;2023-09-12T00:04:45;6.28;;;2.13;;
50291;SDS011;36190;54.980;73.388;2023-09-12T00:07:16;7.03;;;2.30;;
50291;SDS011;36190;54.980;73.388;2023-09-12T00:09:43;6.50;;;2.35;;
50291;SDS011;36190;54.980;73.388;2023-09-12T00:12:13;4.13;;;2.30;;
50291;SDS011;36190;54.980;73.388;2023-09-12T00:14:43;6.57;;;2.80;;
50291;SDS011;36190;54.980;73.388;2023-09-12T00:17:10;7.35;;;2.40;;
50291;SDS011;36190;54.980;73.388;2023-09-12T00:19:38;5.57;;;2.30;;
50291;SDS011;36190;54.980;73.388;2023-09-12T00:22:05;5.38;;;2.28;;
50291;SDS011;36190;54.980;73.388;2023-09-12T00:24:33;3.30;;;2.10;;
50291;SDS011;36190;54.980;73.388;2023-09-12T00:27:00;5.68;;;2.13;;
50291;SDS011;36190;54.980;73.388;2023-09-12T00:29:30;4.82;;;2.35;;
50291;SDS011;36190;54.980;73.388;2023-09-12T00:31:59;7.20;;;2.88;;
50291;SDS011;36190;54.980;73.388;2023-09-12T00:34:26;8.25;;;2.45;;
50291;SDS011;36190;54.980;73.388;2023-09-12T00:36:54;5.75;;;2.60;;
50291;SDS011;36190;54.980;73.388;2023-09-12T00:39:20;5.95;;;2.60;;
50291;SDS011;36190;54.980;73.388;2023-09-12T00:41:48;5.63;;;2.60;;
50291;SDS011;36190;54.980;73.388;2023-09-12T00:44:15;7.30;;;2.53;;
50291;SDS011;36190;54.980;73.388;2023-09-12T00:46:46;6.13;;;2.45;;
50291;SDS011;36190;54.980;73.388;2023-09-12T00:49:18;5.55;;;2.33;;
50291;SDS011;36190;54.980;73.388;2023-09-12T00:51:47;6.97;;;2.45;;
50291;SDS011;36190;54.980;73.388;2023-09-12T00:54:17;6.75;;;2.50;;
50291;SDS011;36190;54.980;73.388;2023-09-12T00:56:45;7.15;;;2.55;;
50291;SDS011;36190;54.980;73.388;2023-09-12T00:59:13;7.05;;;2.70;;
50291;SDS011;36190;54.980;73.388;2023-09-12T01:01:43;6.63;;;2.63;;
50291;SDS011;36190;54.980;73.388;2023-09-12T01:04:11;5.38;;;2.60;;
50291;SDS011;36190;54.980;73.388;2023-09-12T01:06:40;8.75;;;3.30;;
50291;SDS011;36190;54.980;73.388;2023-09-12T01:09:08;8.85;;;2.95;;
50291;SDS011;36190;54.980;73.388;2023-09-12T01:11:35;10.20;;;3.03;;
50291;SDS011;36190;54.980;73.388;2023-09-12T01:14:03;13.30;;;4.38;;
50291;SDS011;36190;54.980;73.388;2023-09-12T01:16:31;5.88;;;2.60;;
50291;SDS011;36190;54.980;73.388;2023-09-12T01:18:58;5.60;;;2.60;;
50291;SDS011;36190;54.980;73.388;2023-09-12T01:21:32;5.80;;;2.70;;
50291;SDS011;36190;54.980;73.388;2023-09-12T01:24:21;5.43;;;2.22;;
50291;SDS011;36190;54.980;73.388;2023-09-12T01:27:19;11.23;;;3.03;;
50291;SDS011;36190;54.980;73.388;2023-09-12T01:29:48;15.40;;;3.67;;
50291;SDS011;36190;54.980;73.388;2023-09-12T01:32:20;10.50;;;4.20;;
50291;SDS011;36190;54.980;73.388;2023-09-12T01:34:47;13.38;;;3.58;;
50291;SDS011;36190;54.980;73.388;2023-09-12T01:37:15;7.97;;;2.50;;
50291;SDS011;36190;54.980;73.388;2023-09-12T01:39:42;11.32;;;3.33;;
50291;SDS011;36190;54.980;73.388;2023-09-12T01:42:10;16.55;;;5.22;;
50291;SDS011;36190;54.980;73.388;2023-09-12T01:44:43;16.02;;;6.13;;
50291;SDS011;36190;54.980;73.388;2023-09-12T01:47:11;13.57;;;3.67;;
50291;SDS011;36190;54.980;73.388;2023-09-12T01:49:39;14.50;;;3.08;;
50291;SDS011;36190;54.980;73.388;2023-09-12T01:52:12;7.63;;;2.72;;
50291;SDS011;36190;54.980;73.388;2023-09-12T01:54:41;7.65;;;2.75;;
50291;SDS011;36190;54.980;73.388;2023-09-12T01:57:11;5.97;;;2.80;;
50291;SDS011;36190;54.980;73.388;2023-09-12T01:59:40;17.38;;;3.83;;
50291;SDS011;36190;54.980;73.388;2023-09-12T02:02:09;7.57;;;2.65;;
50291;SDS011;36190;54.980;73.388;2023-09-12T02:04:37;5.57;;;2.47;;
50291;SDS011;36190;54.980;73.388;2023-09-12T02:07:04;8.23;;;2.75;;
50291;SDS011;36190;54.980;73.388;2023-09-12T02:09:32;7.85;;;3.00;;
50291;SDS011;36190;54.980;73.388;2023-09-12T02:11:59;11.13;;;2.85;;
50291;SDS011;36190;54.980;73.388;2023-09-12T02:14:27;7.95;;;2.70;;
50291;SDS011;36190;54.980;73.388;2023-09-12T02:16:54;18.98;;;3.70;;
50291;SDS011;36190;54.980;73.388;2023-09-12T02:19:23;15.35;;;4.05;;
50291;SDS011;36190;54.980;73.388;2023-09-12T02:21:51;10.90;;;3.10;;
50291;SDS011;36190;54.980;73.388;2023-09-12T02:24:18;6.68;;;2.95;;
50291;SDS011;36190;54.980;73.388;2023-09-12T02:26:46;7.47;;;2.70;;
50291;SDS011;36190;54.980;73.388;2023-09-12T02:29:14;8.77;;;2.83;;
50291;SDS011;36190;54.980;73.388;2023-09-12T02:31:41;5.75;;;2.60;;
50291;SDS011;36190;54.980;73.388;2023-09-12T02:34:09;5.10;;;2.60;;
50291;SDS011;36190;54.980;73.388;2023-09-12T02:36:38;9.68;;;3.00;;
50291;SDS011;36190;54.980;73.388;2023-09-12T02:39:05;8.20;;;2.72;;
50291;SDS011;36190;54.980;73.388;2023-09-12T02:41:33;9.90;;;2.85;;
50291;SDS011;36190;54.980;73.388;2023-09-12T02:44:00;10.88;;;2.90;;
50291;SDS011;36190;54.980;73.388;2023-09-12T02:46:28;7.55;;;2.90;;
50291;SDS011;36190;54.980;73.388;2023-09-12T02:48:56;11.50;;;3.40;;
50291;SDS011;36190;54.980;73.388;2023-09-12T02:51:24;17.35;;;3.60;;
50291;SDS011;36190;54.980;73.388;2023-09-12T02:53:54;8.48;;;3.00;;
50291;SDS011;36190;54.980;73.388;2023-09-12T02:56:22;11.65;;;3.42;;
50291;SDS011;36190;54.980;73.388;2023-09-12T02:58:49;10.60;;;3.35;;
50291;SDS011;36190;54.980;73.388;2023-09-12T03:01:17;10.93;;;3.10;;
50291;SDS011;36190;54.980;73.388;2023-09-12T03:03:45;12.15;;;3.75;;
50291;SDS011;36190;54.980;73.388;2023-09-12T03:06:13;13.38;;;4.75;;
50291;SDS011;36190;54.980;73.388;2023-09-12T03:08:41;15.48;;;5.80;;
50291;SDS011;36190;54.980;73.388;2023-09-12T03:11:11;19.27;;;6.47;;
50291;SDS011;36190;54.980;73.388;2023-09-12T03:13:39;10.68;;;3.70;;
50291;SDS011;36190;54.980;73.388;2023-09-12T03:16:09;8.95;;;2.95;;
50291;SDS011;36190;54.980;73.388;2023-09-12T03:18:37;11.75;;;3.95;;
50291;SDS011;36190;54.980;73.388;2023-09-12T03:21:04;8.15;;;3.45;;
50291;SDS011;36190;54.980;73.388;2023-09-12T03:23:32;9.90;;;3.25;;
50291;SDS011;36190;54.980;73.388;2023-09-12T03:26:00;9.90;;;3.45;;
50291;SDS011;36190;54.980;73.388;2023-09-12T03:28:30;9.00;;;3.40;;
50291;SDS011;36190;54.980;73.388;2023-09-12T03:31:03;38.22;;;5.38;;
50291;SDS011;36190;54.980;73.388;2023-09-12T03:33:32;18.33;;;6.40;;
50291;SDS011;36190;54.980;73.388;2023-09-12T03:36:00;13.00;;;3.97;;
50291;SDS011;36190;54.980;73.388;2023-09-12T03:38:27;13.63;;;4.20;;
50291;SDS011;36190;54.980;73.388;2023-09-12T03:40:55;10.02;;;3.28;;
50291;SDS011;36190;54.980;73.388;2023-09-12T03:43:22;9.75;;;3.53;;
50291;SDS011;36190;54.980;73.388;2023-09-12T03:45:51;12.48;;;4.20;;
50291;SDS011;36190;54.980;73.388;2023-09-12T03:48:20;11.05;;;4.15;;
50291;SDS011;36190;54.980;73.388;2023-09-12T03:50:47;11.90;;;4.45;;
50291;SDS011;36190;54.980;73.388;2023-09-12T03:53:15;10.98;;;3.83;;
50291;SDS011;36190;54.980;73.388;2023-09-12T03:55:43;10.00;;;3.50;;
50291;SDS011;36190;54.980;73.388;2023-09-12T03:58:10;9.60;;;3.72;;
50291;SDS011;36190;54.980;73.388;2023-09-12T04:00:38;11.00;;;4.00;;
50291;SDS011;36190;54.980;73.388;2023-09-12T04:03:07;12.23;;;4.10;;
50291;SDS011;36190;54.980;73.388;2023-09-12T04:05:34;9.95;;;3.90;;
50291;SDS011;36190;54.980;73.388;2023-09-12T04:08:02;14.50;;;4.32;;
50291;SDS011;36190;54.980;73.388;2023-09-12T04:10:30;12.75;;;4.72;;
50291;SDS011;36190;54.980;73.388;2023-09-12T04:12:59;11.00;;;3.90;;
50291;SDS011;36190;54.980;73.388;2023-09-12T04:15:26;19.02;;;4.00;;
50291;SDS011;36190;54.980;73.388;2023-09-12T04:17:54;20.33;;;4.18;;
50291;SDS011;36190;54.980;73.388;2023-09-12T04:20:23;16.25;;;4.60;;
50291;SDS011;36190;54.980;73.388;2023-09-12T04:22:50;12.55;;;4.40;;
50291;SDS011;36190;54.980;73.388;2023-09-12T04:25:18;12.52;;;3.50;;
50291;SDS011;36190;54.980;73.388;2023-09-12T04:27:45;13.70;;;3.88;;
50291;SDS011;36190;54.980;73.388;2023-09-12T04:30:13;19.65;;;4.60;;
50291;SDS011;36190;54.980;73.388;2023-09-12T04:32:40;18.80;;;4.63;;
50291;SDS011;36190;54.980;73.388;2023-09-12T04:35:08;15.43;;;4.63;;
50291;SDS011;36190;54.980;73.388;2023-09-12T04:37:37;14.63;;;4.07;;
50291;SDS011;36190;54.980;73.388;2023-09-12T04:40:06;20.25;;;4.97;;
50291;SDS011;36190;54.980;73.388;2023-09-12T04:42:35;12.88;;;3.92;;
50291;SDS011;36190;54.980;73.388;2023-09-12T04:45:02;12.85;;;3.80;;
50291;SDS011;36190;54.980;73.388;2023-09-12T04:47:31;24.45;;;5.70;;
50291;SDS011;36190;54.980;73.388;2023-09-12T04:49:58;16.20;;;4.18;;
50291;SDS011;36190;54.980;73.388;2023-09-12T04:52:27;9.57;;;3.40;;
50291;SDS011;36190;54.980;73.388;2023-09-12T04:54:56;12.95;;;3.80;;
50291;SDS011;36190;54.980;73.388;2023-09-12T04:57:24;11.38;;;4.15;;
50291;SDS011;36190;54.980;73.388;2023-09-12T04:59:51;15.45;;;4.95;;
50291;SDS011;36190;54.980;73.388;2023-09-12T05:02:19;20.20;;;5.82;;
50291;SDS011;36190;54.980;73.388;2023-09-12T05:04:46;15.35;;;4.93;;
50291;SDS011;36190;54.980;73.388;2023-09-12T05:07:14;19.67;;;5.05;;
50291;SDS011;36190;54.980;73.388;2023-09-12T05:09:41;16.92;;;4.20;;
50291;SDS011;36190;54.980;73.388;2023-09-12T05:12:10;14.93;;;3.85;;
50291;SDS011;36190;54.980;73.388;2023-09-12T05:14:38;10.85;;;3.53;;
50291;SDS011;36190;54.980;73.388;2023-09-12T05:17:05;10.45;;;3.80;;
50291;SDS011;36190;54.980;73.388;2023-09-12T05:19:33;11.63;;;4.03;;
50291;SDS011;36190;54.980;73.388;2023-09-12T05:22:00;52.88;;;8.27;;
50291;SDS011;36190;54.980;73.388;2023-09-12T05:24:28;15.07;;;3.70;;
50291;SDS011;36190;54.980;73.388;2023-09-12T05:26:55;13.90;;;4.05;;
50291;SDS011;36190;54.980;73.388;2023-09-12T05:29:24;18.23;;;4.60;;
50291;SDS011;36190;54.980;73.388;2023-09-12T05:31:52;11.35;;;3.70;;
50291;SDS011;36190;54.980;73.388;2023-09-12T05:34:20;11.20;;;3.72;;
50291;SDS011;36190;54.980;73.388;2023-09-12T05:36:47;13.90;;;3.55;;
50291;SDS011;36190;54.980;73.388;2023-09-12T05:39:15;9.77;;;3.85;;
50291;SDS011;36190;54.980;73.388;2023-09-12T05:41:43;12.98;;;3.70;;
50291;SDS011;36190;54.980;73.388;2023-09-12T05:44:11;11.30;;;4.30;;
50291;SDS011;36190;54.980;73.388;2023-09-12T05:46:44;12.85;;;3.58;;
50291;SDS011;36190;54.980;73.388;2023-09-12T05:49:12;13.32;;;4.03;;
50291;SDS011;36190;54.980;73.388;2023-09-12T05:51:40;15.77;;;3.60;;
50291;SDS011;36190;54.980;73.388;2023-09-12T05:54:08;8.82;;;3.30;;
50291;SDS011;36190;54.980;73.388;2023-09-12T05:56:37;10.70;;;4.32;;
50291;SDS011;36190;54.980;73.388;2023-09-12T05:59:05;13.98;;;4.55;;
50291;SDS011;36190;54.980;73.388;2023-09-12T06:01:32;14.48;;;4.05;;
50291;SDS011;36190;54.980;73.388;2023-09-12T06:04:01;15.63;;;5.32;;
50291;SDS011;36190;54.980;73.388;2023-09-12T06:06:30;19.13;;;5.93;;
50291;SDS011;36190;54.980;73.388;2023-09-12T06:08:57;34.10;;;7.28;;
50291;SDS011;36190;54.980;73.388;2023-09-12T06:11:25;11.25;;;3.90;;
50291;SDS011;36190;54.980;73.388;2023-09-12T06:13:52;13.23;;;4.13;;
50291;SDS011;36190;54.980;73.388;2023-09-12T06:16:20;30.20;;;7.82;;
50291;SDS011;36190;54.980;73.388;2023-09-12T06:18:48;15.48;;;4.97;;
50291;SDS011;36190;54.980;73.388;2023-09-12T06:21:17;28.15;;;4.65;;
50291;SDS011;36190;54.980;73.388;2023-09-12T06:23:44;13.13;;;4.38;;
50291;SDS011;36190;54.980;73.388;2023-09-12T06:26:12;13.75;;;4.50;;
50291;SDS011;36190;54.980;73.388;2023-09-12T06:28:39;16.50;;;4.55;;
50291;SDS011;36190;54.980;73.388;2023-09-12T06:31:07;15.27;;;4.30;;
50291;SDS011;36190;54.980;73.388;2023-09-12T06:33:37;11.25;;;4.35;;
50291;SDS011;36190;54.980;73.388;2023-09-12T06:36:05;10.48;;;4.25;;
50291;SDS011;36190;54.980;73.388;2023-09-12T06:38:34;11.95;;;4.13;;
50291;SDS011;36190;54.980;73.388;2023-09-12T06:41:02;17.35;;;4.50;;
50291;SDS011;36190;54.980;73.388;2023-09-12T06:43:30;11.98;;;4.28;;
50291;SDS011;36190;54.980;73.388;2023-09-12T06:45:57;13.77;;;4.07;;
50291;SDS011;36190;54.980;73.388;2023-09-12T06:48:25;14.32;;;4.07;;
50291;SDS011;36190;54.980;73.388;2023-09-12T06:50:53;9.10;;;4.25;;
50291;SDS011;36190;54.980;73.388;2023-09-12T06:53:20;9.95;;;4.22;;
50291;SDS011;36190;54.980;73.388;2023-09-12T06:55:49;14.35;;;4.95;;
50291;SDS011;36190;54.980;73.388;2023-09-12T06:58:17;11.82;;;4.40;;
50291;SDS011;36190;54.980;73.388;2023-09-12T07:00:44;12.10;;;3.70;;
50291;SDS011;36190;54.980;73.388;2023-09-12T07:03:12;13.43;;;6.53;;
50291;SDS011;36190;54.980;73.388;2023-09-12T07:05:41;14.68;;;4.53;;
50291;SDS011;36190;54.980;73.388;2023-09-12T07:08:08;13.52;;;4.40;;
50291;SDS011;36190;54.980;73.388;2023-09-12T07:10:36;11.00;;;3.80;;
50291;SDS011;36190;54.980;73.388;2023-09-12T07:13:05;14.27;;;4.00;;
50291;SDS011;36190;54.980;73.388;2023-09-12T07:15:35;11.73;;;4.57;;
50291;SDS011;36190;54.980;73.388;2023-09-12T07:18:03;12.13;;;4.03;;
50291;SDS011;36190;54.980;73.388;2023-09-12T07:20:32;11.65;;;3.88;;
50291;SDS011;36190;54.980;73.388;2023-09-12T07:23:00;11.48;;;3.63;;
50291;SDS011;36190;54.980;73.388;2023-09-12T07:25:28;8.95;;;3.70;;
50291;SDS011;36190;54.980;73.388;2023-09-12T07:27:55;14.52;;;4.07;;
50291;SDS011;36190;54.980;73.388;2023-09-12T07:30:25;15.10;;;4.03;;
50291;SDS011;36190;54.980;73.388;2023-09-12T07:32:54;10.30;;;4.50;;
50291;SDS011;36190;54.980;73.388;2023-09-12T07:35:21;14.88;;;5.22;;
50291;SDS011;36190;54.980;73.388;2023-09-12T07:37:49;9.32;;;4.22;;
50291;SDS011;36190;54.980;73.388;2023-09-12T07:40:17;10.98;;;4.18;;
50291;SDS011;36190;54.980;73.388;2023-09-12T07:42:44;10.38;;;4.03;;
50291;SDS011;36190;54.980;73.388;2023-09-12T07:45:12;55.30;;;6.15;;
50291;SDS011;36190;54.980;73.388;2023-09-12T07:47:41;16.20;;;4.30;;
50291;SDS011;36190;54.980;73.388;2023-09-12T07:50:09;11.32;;;4.53;;
50291;SDS011;36190;54.980;73.388;2023-09-12T07:52:36;10.85;;;4.15;;
50291;SDS011;36190;54.980;73.388;2023-09-12T07:55:04;10.07;;;4.28;;
50291;SDS011;36190;54.980;73.388;2023-09-12T07:57:34;9.35;;;4.20;;
50291;SDS011;36190;54.980;73.388;2023-09-12T08:00:03;15.20;;;4.35;;
50291;SDS011;36190;54.980;73.388;2023-09-12T08:02:36;10.25;;;4.07;;
50291;SDS011;36190;54.980;73.388;2023-09-12T08:05:05;9.73;;;3.75;;
50291;SDS011;36190;54.980;73.388;2023-09-12T08:07:34;8.73;;;3.80;;
50291;SDS011;36190;54.980;73.388;2023-09-12T08:10:02;10.50;;;3.78;;
50291;SDS011;36190;54.980;73.388;2023-09-12T08:12:30;9.43;;;3.53;;
50291;SDS011;36190;54.980;73.388;2023-09-12T08:14:57;14.82;;;4.13;;
50291;SDS011;36190;54.980;73.388;2023-09-12T08:17:25;12.85;;;3.85;;
50291;SDS011;36190;54.980;73.388;2023-09-12T08:19:53;10.63;;;3.78;;
50291;SDS011;36190;54.980;73.388;2023-09-12T08:22:22;13.43;;;4.57;;
50291;SDS011;36190;54.980;73.388;2023-09-12T08:24:49;13.27;;;3.92;;
50291;SDS011;36190;54.980;73.388;2023-09-12T08:27:17;10.77;;;4.00;;
50291;SDS011;36190;54.980;73.388;2023-09-12T08:29:44;9.43;;;3.85;;
50291;SDS011;36190;54.980;73.388;2023-09-12T08:32:13;11.32;;;3.72;;
50291;SDS011;36190;54.980;73.388;2023-09-12T08:34:41;13.02;;;4.05;;
50291;SDS011;36190;54.980;73.388;2023-09-12T08:37:08;11.60;;;4.43;;
50291;SDS011;36190;54.980;73.388;2023-09-12T08:39:44;14.15;;;4.40;;
50291;SDS011;36190;54.980;73.388;2023-09-12T08:42:12;10.10;;;3.42;;
50291;SDS011;36190;54.980;73.388;2023-09-12T08:44:41;9.38;;;3.70;;
50291;SDS011;36190;54.980;73.388;2023-09-12T08:47:09;10.52;;;4.18;;
50291;SDS011;36190;54.980;73.388;2023-09-12T08:49:38;9.52;;;4.43;;
50291;SDS011;36190;54.980;73.388;2023-09-12T08:52:07;14.85;;;4.40;;
50291;SDS011;36190;54.980;73.388;2023-09-12T08:54:35;9.98;;;3.90;;
50291;SDS011;36190;54.980;73.388;2023-09-12T08:57:04;10.27;;;3.63;;
50291;SDS011;36190;54.980;73.388;2023-09-12T08:59:33;15.90;;;3.90;;
50291;SDS011;36190;54.980;73.388;2023-09-12T09:02:02;10.25;;;4.00;;
50291;SDS011;36190;54.980;73.388;2023-09-12T09:04:33;10.95;;;4.10;;
50291;SDS011;36190;54.980;73.388;2023-09-12T09:07:03;9.57;;;3.88;;
50291;SDS011;36190;54.980;73.388;2023-09-12T09:09:31;13.32;;;3.75;;
50291;SDS011;36190;54.980;73.388;2023-09-12T09:11:59;9.25;;;3.80;;
50291;SDS011;36190;54.980;73.388;2023-09-12T09:14:28;9.50;;;4.10;;
50291;SDS011;36190;54.980;73.388;2023-09-12T09:16:57;10.50;;;3.75;;
50291;SDS011;36190;54.980;73.388;2023-09-12T09:19:28;10.45;;;4.53;;
50291;SDS011;36190;54.980;73.388;2023-09-12T09:22:08;10.95;;;4.07;;
50291;SDS011;36190;54.980;73.388;2023-09-12T09:24:36;13.73;;;4.13;;
50291;SDS011;36190;54.980;73.388;2023-09-12T09:27:03;13.18;;;4.15;;
50291;SDS011;36190;54.980;73.388;2023-09-12T09:29:32;14.32;;;4.40;;
50291;SDS011;36190;54.980;73.388;2023-09-12T09:32:16;14.20;;;5.00;;
50291;SDS011;36190;54.980;73.388;2023-09-12T09:34:47;9.10;;;4.15;;
50291;SDS011;36190;54.980;73.388;2023-09-12T09:37:15;12.05;;;5.30;;
50291;SDS011;36190;54.980;73.388;2023-09-12T09:39:44;16.83;;;4.63;;
50291;SDS011;36190;54.980;73.388;2023-09-12T09:42:17;11.18;;;4.00;;
50291;SDS011;36190;54.980;73.388;2023-09-12T09:44:46;20.45;;;4.55;;
50291;SDS011;36190;54.980;73.388;2023-09-12T09:47:16;9.63;;;4.10;;
50291;SDS011;36190;54.980;73.388;2023-09-12T09:49:45;11.45;;;3.95;;
50291;SDS011;36190;54.980;73.388;2023-09-12T09:52:13;20.13;;;7.55;;
50291;SDS011;36190;54.980;73.388;2023-09-12T09:54:42;15.25;;;4.35;;
50291;SDS011;36190;54.980;73.388;2023-09-12T09:57:12;18.35;;;6.32;;
50291;SDS011;36190;54.980;73.388;2023-09-12T09:59:39;12.88;;;4.15;;
50291;SDS011;36190;54.980;73.388;2023-09-12T10:02:09;14.65;;;4.88;;
50291;SDS011;36190;54.980;73.388;2023-09-12T10:04:47;8.93;;;4.20;;
50291;SDS011;36190;54.980;73.388;2023-09-12T10:07:16;10.82;;;4.80;;
50291;SDS011;36190;54.980;73.388;2023-09-12T10:09:45;11.48;;;5.15;;
50291;SDS011;36190;54.980;73.388;2023-09-12T10:12:13;11.95;;;4.70;;
50291;SDS011;36190;54.980;73.388;2023-09-12T10:14:41;10.70;;;4.38;;
50291;SDS011;36190;54.980;73.388;2023-09-12T10:17:11;8.90;;;4.35;;
50291;SDS011;36190;54.980;73.388;2023-09-12T10:19:43;11.27;;;4.43;;
50291;SDS011;36190;54.980;73.388;2023-09-12T10:22:20;11.30;;;4.85;;
50291;SDS011;36190;54.980;73.388;2023-09-12T10:24:51;9.23;;;4.47;;
50291;SDS011;36190;54.980;73.388;2023-09-12T10:27:20;12.18;;;4.80;;
50291;SDS011;36190;54.980;73.388;2023-09-12T10:29:49;10.02;;;4.25;;
50291;SDS011;36190;54.980;73.388;2023-09-12T10:32:20;14.80;;;5.43;;
50291;SDS011;36190;54.980;73.388;2023-09-12T10:34:52;15.75;;;5.22;;
50291;SDS011;36190;54.980;73.388;2023-09-12T10:37:21;14.85;;;4.70;;
50291;SDS011;36190;54.980;73.388;2023-09-12T10:39:52;8.30;;;4.03;;
50291;SDS011;36190;54.980;73.388;2023-09-12T10:42:20;11.63;;;4.20;;
50291;SDS011;36190;54.980;73.388;2023-09-12T10:44:48;10.85;;;5.43;;
50291;SDS011;36190;54.980;73.388;2023-09-12T10:47:19;9.98;;;4.22;;
50291;SDS011;36190;54.980;73.388;2023-09-12T10:49:48;13.55;;;4.45;;
50291;SDS011;36190;54.980;73.388;2023-09-12T10:52:23;9.95;;;4.50;;
50291;SDS011;36190;54.980;73.388;2023-09-12T10:54:52;8.35;;;4.40;;
50291;SDS011;36190;54.980;73.388;2023-09-12T10:57:19;9.82;;;3.97;;
50291;SDS011;36190;54.980;73.388;2023-09-12T11:02:40;10.15;;;4.47;;
50291;SDS011;36190;54.980;73.388;2023-09-12T11:08:11;10.48;;;4.15;;
50291;SDS011;36190;54.980;73.388;2023-09-12T11:10:39;11.60;;;4.75;;
50291;SDS011;36190;54.980;73.388;2023-09-12T11:13:07;8.77;;;4.63;;
50291;SDS011;36190;54.980;73.388;2023-09-12T11:21:42;9.65;;;4.53;;
50291;SDS011;36190;54.980;73.388;2023-09-12T11:24:11;11.13;;;4.10;;
50291;SDS011;36190;54.980;73.388;2023-09-12T11:26:57;9.90;;;3.97;;
50291;SDS011;36190;54.980;73.388;2023-09-12T11:29:26;8.30;;;3.88;;
50291;SDS011;36190;54.980;73.388;2023-09-12T11:31:56;10.43;;;3.78;;
50291;SDS011;36190;54.980;73.388;2023-09-12T11:34:26;9.63;;;4.03;;
50291;SDS011;36190;54.980;73.388;2023-09-12T11:36:55;10.05;;;4.03;;
50291;SDS011;36190;54.980;73.388;2023-09-12T11:39:25;9.50;;;4.35;;
50291;SDS011;36190;54.980;73.388;2023-09-12T11:41:55;12.10;;;4.63;;
50291;SDS011;36190;54.980;73.388;2023-09-12T11:44:23;7.63;;;3.55;;
50291;SDS011;36190;54.980;73.388;2023-09-12T11:46:52;7.78;;;4.07;;
50291;SDS011;36190;54.980;73.388;2023-09-12T11:49:21;9.80;;;4.47;;
50291;SDS011;36190;54.980;73.388;2023-09-12T11:51:50;8.98;;;4.30;;
50291;SDS011;36190;54.980;73.388;2023-09-12T11:54:21;11.02;;;4.50;;
50291;SDS011;36190;54.980;73.388;2023-09-12T11:56:52;9.18;;;3.97;;
50291;SDS011;36190;54.980;73.388;2023-09-12T11:59:22;11.00;;;4.00;;
50291;SDS011;36190;54.980;73.388;2023-09-12T12:01:49;15.52;;;4.68;;
50291;SDS011;36190;54.980;73.388;2023-09-12T12:04:17;12.02;;;4.68;;
50291;SDS011;36190;54.980;73.388;2023-09-12T12:06:46;9.65;;;5.07;;
50291;SDS011;36190;54.980;73.388;2023-09-12T12:09:15;12.25;;;4.70;;
50291;SDS011;36190;54.980;73.388;2023-09-12T12:11:44;13.77;;;4.50;;
50291;SDS011;36190;54.980;73.388;2023-09-12T12:14:13;10.50;;;4.10;;
50291;SDS011;36190;54.980;73.388;2023-09-12T12:16:41;10.32;;;4.15;;
50291;SDS011;36190;54.980;73.388;2023-09-12T12:19:09;10.63;;;5.05;;
50291;SDS011;36190;54.980;73.388;2023-09-12T12:21:37;11.57;;;4.90;;
50291;SDS011;36190;54.980;73.388;2023-09-12T12:24:07;9.45;;;4.45;;
50291;SDS011;36190;54.980;73.388;2023-09-12T12:26:36;19.02;;;4.65;;
50291;SDS011;36190;54.980;73.388;2023-09-12T12:29:04;12.15;;;4.88;;
50291;SDS011;36190;54.980;73.388;2023-09-12T12:31:32;11.05;;;4.30;;
50291;SDS011;36190;54.980;73.388;2023-09-12T12:33:59;12.05;;;4.57;;
50291;SDS011;36190;54.980;73.388;2023-09-12T12:36:27;13.02;;;5.40;;
50291;SDS011;36190;54.980;73.388;2023-09-12T12:38:54;10.13;;;4.78;;
50291;SDS011;36190;54.980;73.388;2023-09-12T12:41:23;13.27;;;4.43;;
50291;SDS011;36190;54.980;73.388;2023-09-12T12:43:53;9.50;;;5.07;;
50291;SDS011;36190;54.980;73.388;2023-09-12T12:46:26;15.13;;;5.60;;
50291;SDS011;36190;54.980;73.388;2023-09-12T12:48:54;12.50;;;5.28;;
50291;SDS011;36190;54.980;73.388;2023-09-12T12:51:22;11.13;;;5.70;;
50291;SDS011;36190;54.980;73.388;2023-09-12T12:53:51;18.35;;;5.05;;
50291;SDS011;36190;54.980;73.388;2023-09-12T12:56:20;10.32;;;4.90;;
50291;SDS011;36190;54.980;73.388;2023-09-12T12:58:50;11.50;;;4.95;;
50291;SDS011;36190;54.980;73.388;2023-09-12T13:01:22;12.43;;;5.45;;
50291;SDS011;36190;54.980;73.388;2023-09-12T13:03:50;11.20;;;5.55;;
50291;SDS011;36190;54.980;73.388;2023-09-12T13:06:19;12.05;;;5.82;;
50291;SDS011;36190;54.980;73.388;2023-09-12T13:08:47;10.20;;;5.50;;
50291;SDS011;36190;54.980;73.388;2023-09-12T13:11:16;13.68;;;6.13;;
50291;SDS011;36190;54.980;73.388;2023-09-12T13:13:43;16.30;;;7.40;;
50291;SDS011;36190;54.980;73.388;2023-09-12T13:16:13;15.57;;;8.23;;
50291;SDS011;36190;54.980;73.388;2023-09-12T13:18:41;16.00;;;8.23;;
50291;SDS011;36190;54.980;73.388;2023-09-12T13:21:09;15.65;;;7.90;;
50291;SDS011;36190;54.980;73.388;2023-09-12T13:23:37;14.63;;;7.95;;
50291;SDS011;36190;54.980;73.388;2023-09-12T13:26:05;16.50;;;8.57;;
50291;SDS011;36190;54.980;73.388;2023-09-12T13:28:33;18.77;;;10.07;;
50291;SDS011;36190;54.980;73.388;2023-09-12T13:31:01;16.98;;;10.18;;
50291;SDS011;36190;54.980;73.388;2023-09-12T13:33:30;17.90;;;10.10;;
50291;SDS011;36190;54.980;73.388;2023-09-12T13:35:58;18.98;;;11.80;;
50291;SDS011;36190;54.980;73.388;2023-09-12T13:38:25;21.10;;;10.80;;
50291;SDS011;36190;54.980;73.388;2023-09-12T13:40:53;18.42;;;11.10;;
50291;SDS011;36190;54.980;73.388;2023-09-12T13:43:20;16.13;;;10.00;;
50291;SDS011;36190;54.980;73.388;2023-09-12T13:45:48;18.65;;;10.07;;
50291;SDS011;36190;54.980;73.388;2023-09-12T13:48:15;18.50;;;9.85;;
50291;SDS011;36190;54.980;73.388;2023-09-12T13:50:45;20.15;;;9.57;;
50291;SDS011;36190;54.980;73.388;2023-09-12T13:53:13;18.83;;;9.13;;
50291;SDS011;36190;54.980;73.388;2023-09-12T13:55:40;16.30;;;9.05;;
50291;SDS011;36190;54.980;73.388;2023-09-12T13:58:08;15.85;;;8.40;;
50291;SDS011;36190;54.980;73.388;2023-09-12T14:00:35;16.92;;;9.10;;
50291;SDS011;36190;54.980;73.388;2023-09-12T14:03:03;15.40;;;7.55;;
50291;SDS011;36190;54.980;73.388;2023-09-12T14:05:31;12.82;;;6.30;;
50291;SDS011;36190;54.980;73.388;2023-09-12T14:08:00;12.88;;;6.43;;
50291;SDS011;36190;54.980;73.388;2023-09-12T14:10:28;12.75;;;5.22;;
50291;SDS011;36190;54.980;73.388;2023-09-12T14:12:56;14.48;;;5.85;;
50291;SDS011;36190;54.980;73.388;2023-09-12T14:15:23;11.73;;;5.00;;
50291;SDS011;36190;54.980;73.388;2023-09-12T14:17:51;9.80;;;5.13;;
50291;SDS011;36190;54.980;73.388;2023-09-12T14:20:19;10.82;;;5.20;;
50291;SDS011;36190;54.980;73.388;2023-09-12T14:22:46;14.90;;;5.72;;
50291;SDS011;36190;54.980;73.388;2023-09-12T14:25:15;12.85;;;5.38;;
50291;SDS011;36190;54.980;73.388;2023-09-12T14:27:43;12.32;;;5.90;;
50291;SDS011;36190;54.980;73.388;2023-09-12T14:30:11;15.05;;;5.85;;
50291;SDS011;36190;54.980;73.388;2023-09-12T14:32:39;15.07;;;6.00;;
50291;SDS011;36190;54.980;73.388;2023-09-12T14:35:07;15.88;;;6.32;;
50291;SDS011;36190;54.980;73.388;2023-09-12T14:37:35;12.80;;;5.95;;
50291;SDS011;36190;54.980;73.388;2023-09-12T14:40:03;15.38;;;6.88;;
50291;SDS011;36190;54.980;73.388;2023-09-12T14:42:33;12.93;;;6.50;;
50291;SDS011;36190;54.980;73.388;2023-09-12T14:45:01;13.15;;;6.25;;
50291;SDS011;36190;54.980;73.388;2023-09-12T14:47:29;11.85;;;6.10;;